Augusta/Daniel Field, Georgia
Current Conditions -  °F | °C
As of 10:53 AM on Tuesday 21 Oct 2014 (Local Time) from KDNL Reporting Station
Clear Clear  
Wind Chill: 70°   Ceiling: Unl
Heat Index: 70°   Visibility: 10mi
Dew Point: 48°   Wind: 6mph
Humidity: 46%   Direction: NA
Pressure: 29.99"   Gusts: NA
Location:  33.47°N, 82.03°W
Report Text: KDNL 211453Z AUTO VRB05KT 10SM CLR 21/09 A2999 RMK AO2 SLP153 T02110089 50004
Loading
Personal Weather Stations






























Interactive Weather Map
Tropical Storm Tracking
New forecast layout! Learn more

10-Day Weather Forecast

Advertisements
Track Severe Weather on mobile